sensor_id;sensor_type;location;lat;lon;timestamp;pressure;altitude;pressure_sealevel;temperature;humidity
12073;BME280;6098;49.004;8.372;2023-02-11T10:26:12;102397.48;;;4.88;66.65
12073;BME280;6098;49.004;8.372;2023-02-11T10:41:03;102394.45;;;5.19;65.00
12073;BME280;6098;49.004;8.372;2023-02-11T10:56:02;102377.05;;;5.57;63.92
12073;BME280;6098;49.004;8.372;2023-02-11T11:11:06;102353.89;;;5.97;62.57
12073;BME280;6098;49.004;8.372;2023-02-11T11:26:15;102363.61;;;6.43;61.07
12073;BME280;6098;49.004;8.372;2023-02-11T11:56:22;102353.78;;;7.35;60.03
12073;BME280;6098;49.004;8.372;2023-02-11T12:11:30;102352.28;;;7.95;59.85
12073;BME280;6098;49.004;8.372;2023-02-11T12:26:23;102330.39;;;8.27;59.10
12073;BME280;6098;49.004;8.372;2023-02-11T13:11:45;102303.47;;;9.22;58.16
12073;BME280;6098;49.004;8.372;2023-02-11T13:42:00;102294.31;;;10.00;56.93
12073;BME280;6098;49.004;8.372;2023-02-11T13:57:14;102290.28;;;10.16;56.76
12073;BME280;6098;49.004;8.372;2023-02-11T14:26:46;102285.36;;;10.22;56.88
12073;BME280;6098;49.004;8.372;2023-02-11T14:56:31;102284.28;;;9.78;57.91
12073;BME280;6098;49.004;8.372;2023-02-11T15:11:23;102289.12;;;9.81;58.56
12073;BME280;6098;49.004;8.372;2023-02-11T15:26:16;102302.45;;;9.64;59.38
12073;BME280;6098;49.004;8.372;2023-02-11T15:41:06;102305.59;;;9.50;59.81
12073;BME280;6098;49.004;8.372;2023-02-11T15:56:11;102311.39;;;9.30;60.74
12073;BME280;6098;49.004;8.372;2023-02-11T16:11:21;102320.27;;;9.17;61.41
12073;BME280;6098;49.004;8.372;2023-02-11T16:26:05;102326.45;;;9.05;61.85
12073;BME280;6098;49.004;8.372;2023-02-11T16:40:57;102349.38;;;8.91;62.26
12073;BME280;6098;49.004;8.372;2023-02-11T16:55:50;102346.74;;;8.82;62.79
12073;BME280;6098;49.004;8.372;2023-02-11T17:10:42;102363.48;;;8.74;63.02
12073;BME280;6098;49.004;8.372;2023-02-11T17:25:36;102371.43;;;8.62;64.12
12073;BME280;6098;49.004;8.372;2023-02-11T17:40:28;102367.00;;;8.52;64.58
12073;BME280;6098;49.004;8.372;2023-02-11T17:55:21;102388.12;;;8.44;65.27
12073;BME280;6098;49.004;8.372;2023-02-11T18:10:14;102377.10;;;8.37;65.48
12073;BME280;6098;49.004;8.372;2023-02-11T18:25:07;102388.55;;;8.35;65.78
12073;BME280;6098;49.004;8.372;2023-02-11T18:40:00;102401.32;;;8.33;65.89
12073;BME280;6098;49.004;8.372;2023-02-11T18:54:53;102409.66;;;8.27;66.96
12073;BME280;6098;49.004;8.372;2023-02-11T19:09:46;102406.97;;;8.20;67.29
12073;BME280;6098;49.004;8.372;2023-02-11T19:24:41;102409.60;;;8.13;67.33
12073;BME280;6098;49.004;8.372;2023-02-11T19:39:32;102406.48;;;8.08;67.99
12073;BME280;6098;49.004;8.372;2023-02-11T19:54:23;102382.23;;;8.00;68.50
12073;BME280;6098;49.004;8.372;2023-02-11T20:09:14;102397.66;;;7.96;68.52
12073;BME280;6098;49.004;8.372;2023-02-11T20:24:08;102396.73;;;7.93;68.83
12073;BME280;6098;49.004;8.372;2023-02-11T20:39:05;102400.70;;;7.91;68.76
12073;BME280;6098;49.004;8.372;2023-02-11T20:54:16;102416.13;;;7.94;68.39
12073;BME280;6098;49.004;8.372;2023-02-11T21:09:08;102415.66;;;7.95;69.23
12073;BME280;6098;49.004;8.372;2023-02-11T21:24:00;102400.25;;;7.85;69.92
12073;BME280;6098;49.004;8.372;2023-02-11T21:38:53;102419.55;;;7.75;70.19
12073;BME280;6098;49.004;8.372;2023-02-11T21:53:57;102408.52;;;7.68;71.01
12073;BME280;6098;49.004;8.372;2023-02-11T22:08:51;102417.27;;;7.59;71.75
12073;BME280;6098;49.004;8.372;2023-02-11T22:23:43;102431.77;;;7.59;73.10
12073;BME280;6098;49.004;8.372;2023-02-11T22:38:35;102441.07;;;7.68;76.57
12073;BME280;6098;49.004;8.372;2023-02-11T22:53:29;102443.73;;;7.70;76.44
12073;BME280;6098;49.004;8.372;2023-02-11T23:08:20;102440.18;;;7.70;76.69
12073;BME280;6098;49.004;8.372;2023-02-11T23:23:12;102448.56;;;7.70;76.34
12073;BME280;6098;49.004;8.372;2023-02-11T23:38:03;102450.23;;;7.56;77.21
12073;BME280;6098;49.004;8.372;2023-02-11T23:52:55;102448.85;;;7.50;75.98
